sensor_id;sensor_type;location;lat;lon;timestamp;P1;durP1;ratioP1;P2;durP2;ratioP2
3369;SDS011;42042;51.948;7.628;2023-02-19T00:02:16;11.93;;;8.33;;
3369;SDS011;42042;51.948;7.628;2023-02-19T00:04:43;11.40;;;7.70;;
3369;SDS011;42042;51.948;7.628;2023-02-19T00:07:12;11.00;;;8.97;;
3369;SDS011;42042;51.948;7.628;2023-02-19T00:09:39;10.80;;;7.73;;
3369;SDS011;42042;51.948;7.628;2023-02-19T00:12:06;13.17;;;8.97;;
3369;SDS011;42042;51.948;7.628;2023-02-19T00:14:34;12.47;;;9.37;;
3369;SDS011;42042;51.948;7.628;2023-02-19T00:17:01;13.93;;;9.03;;
3369;SDS011;42042;51.948;7.628;2023-02-19T00:19:28;14.57;;;10.37;;
3369;SDS011;42042;51.948;7.628;2023-02-19T00:21:55;18.10;;;9.80;;
3369;SDS011;42042;51.948;7.628;2023-02-19T00:24:24;17.90;;;11.50;;
3369;SDS011;42042;51.948;7.628;2023-02-19T00:26:51;20.77;;;12.33;;
3369;SDS011;42042;51.948;7.628;2023-02-19T00:29:19;21.40;;;13.70;;
3369;SDS011;42042;51.948;7.628;2023-02-19T00:31:47;17.20;;;11.80;;
3369;SDS011;42042;51.948;7.628;2023-02-19T00:34:14;27.37;;;14.13;;
3369;SDS011;42042;51.948;7.628;2023-02-19T00:36:41;30.77;;;16.80;;
3369;SDS011;42042;51.948;7.628;2023-02-19T00:39:10;25.57;;;15.33;;
3369;SDS011;42042;51.948;7.628;2023-02-19T00:41:39;30.63;;;18.40;;
3369;SDS011;42042;51.948;7.628;2023-02-19T00:44:06;31.43;;;16.00;;
3369;SDS011;42042;51.948;7.628;2023-02-19T00:46:34;29.83;;;18.90;;
3369;SDS011;42042;51.948;7.628;2023-02-19T00:49:02;32.40;;;19.50;;
3369;SDS011;42042;51.948;7.628;2023-02-19T00:51:30;32.47;;;15.50;;
3369;SDS011;42042;51.948;7.628;2023-02-19T00:53:58;41.27;;;20.53;;
3369;SDS011;42042;51.948;7.628;2023-02-19T00:56:25;39.57;;;19.50;;
3369;SDS011;42042;51.948;7.628;2023-02-19T00:58:54;44.43;;;21.67;;
3369;SDS011;42042;51.948;7.628;2023-02-19T01:01:21;38.40;;;21.70;;
3369;SDS011;42042;51.948;7.628;2023-02-19T01:03:49;37.67;;;20.70;;
3369;SDS011;42042;51.948;7.628;2023-02-19T01:06:16;34.40;;;20.63;;
3369;SDS011;42042;51.948;7.628;2023-02-19T01:08:44;38.13;;;22.60;;
3369;SDS011;42042;51.948;7.628;2023-02-19T01:11:12;45.13;;;23.10;;
3369;SDS011;42042;51.948;7.628;2023-02-19T01:13:40;45.47;;;22.33;;
3369;SDS011;42042;51.948;7.628;2023-02-19T01:16:10;34.83;;;19.33;;
3369;SDS011;42042;51.948;7.628;2023-02-19T01:18:37;35.17;;;19.90;;
3369;SDS011;42042;51.948;7.628;2023-02-19T01:21:05;34.30;;;19.93;;
3369;SDS011;42042;51.948;7.628;2023-02-19T01:23:33;47.77;;;22.33;;
3369;SDS011;42042;51.948;7.628;2023-02-19T01:26:02;37.13;;;20.37;;
3369;SDS011;42042;51.948;7.628;2023-02-19T01:28:29;36.40;;;20.87;;
3369;SDS011;42042;51.948;7.628;2023-02-19T01:30:59;57.30;;;22.43;;
3369;SDS011;42042;51.948;7.628;2023-02-19T01:33:27;32.70;;;18.50;;
3369;SDS011;42042;51.948;7.628;2023-02-19T01:35:54;32.50;;;17.27;;
3369;SDS011;42042;51.948;7.628;2023-02-19T01:38:22;29.60;;;17.53;;
3369;SDS011;42042;51.948;7.628;2023-02-19T01:40:53;34.77;;;19.30;;
3369;SDS011;42042;51.948;7.628;2023-02-19T01:43:20;41.07;;;22.03;;
3369;SDS011;42042;51.948;7.628;2023-02-19T01:45:47;29.80;;;18.13;;
3369;SDS011;42042;51.948;7.628;2023-02-19T01:48:15;29.37;;;17.67;;
3369;SDS011;42042;51.948;7.628;2023-02-19T01:50:48;36.50;;;18.10;;
3369;SDS011;42042;51.948;7.628;2023-02-19T01:53:17;40.97;;;20.73;;
3369;SDS011;42042;51.948;7.628;2023-02-19T01:55:45;40.53;;;19.27;;
3369;SDS011;42042;51.948;7.628;2023-02-19T01:58:14;40.13;;;20.90;;
3369;SDS011;42042;51.948;7.628;2023-02-19T02:00:41;29.53;;;17.30;;
3369;SDS011;42042;51.948;7.628;2023-02-19T02:03:08;28.40;;;17.20;;
3369;SDS011;42042;51.948;7.628;2023-02-19T02:05:39;31.10;;;17.27;;
3369;SDS011;42042;51.948;7.628;2023-02-19T02:08:09;30.93;;;19.30;;
3369;SDS011;42042;51.948;7.628;2023-02-19T02:10:55;28.17;;;18.50;;
3369;SDS011;42042;51.948;7.628;2023-02-19T02:13:23;26.73;;;17.43;;
3369;SDS011;42042;51.948;7.628;2023-02-19T02:15:51;26.77;;;17.43;;
3369;SDS011;42042;51.948;7.628;2023-02-19T02:18:27;35.60;;;20.30;;
3369;SDS011;42042;51.948;7.628;2023-02-19T02:21:03;32.70;;;18.67;;
3369;SDS011;42042;51.948;7.628;2023-02-19T02:23:37;26.67;;;15.03;;
3369;SDS011;42042;51.948;7.628;2023-02-19T02:29:05;34.23;;;18.93;;
3369;SDS011;42042;51.948;7.628;2023-02-19T02:31:39;27.77;;;15.47;;
3369;SDS011;42042;51.948;7.628;2023-02-19T02:34:09;32.50;;;16.27;;
3369;SDS011;42042;51.948;7.628;2023-02-19T02:36:39;27.53;;;17.67;;
3369;SDS011;42042;51.948;7.628;2023-02-19T02:39:08;31.93;;;17.63;;
3369;SDS011;42042;51.948;7.628;2023-02-19T02:41:39;41.40;;;19.67;;
3369;SDS011;42042;51.948;7.628;2023-02-19T02:44:07;26.67;;;16.80;;
3369;SDS011;42042;51.948;7.628;2023-02-19T02:46:35;27.60;;;17.20;;
3369;SDS011;42042;51.948;7.628;2023-02-19T02:49:07;38.50;;;18.30;;
3369;SDS011;42042;51.948;7.628;2023-02-19T02:51:36;26.77;;;16.47;;
3369;SDS011;42042;51.948;7.628;2023-02-19T02:54:05;25.47;;;13.87;;
3369;SDS011;42042;51.948;7.628;2023-02-19T02:56:53;29.37;;;17.93;;
3369;SDS011;42042;51.948;7.628;2023-02-19T02:59:22;31.80;;;17.07;;
3369;SDS011;42042;51.948;7.628;2023-02-19T03:01:50;27.90;;;15.13;;
3369;SDS011;42042;51.948;7.628;2023-02-19T03:04:40;20.50;;;12.77;;
3369;SDS011;42042;51.948;7.628;2023-02-19T03:07:25;27.30;;;13.80;;
3369;SDS011;42042;51.948;7.628;2023-02-19T03:09:54;20.90;;;12.70;;
3369;SDS011;42042;51.948;7.628;2023-02-19T03:12:22;21.73;;;13.32;;
3369;SDS011;42042;51.948;7.628;2023-02-19T03:15:08;25.10;;;13.13;;
3369;SDS011;42042;51.948;7.628;2023-02-19T03:17:55;19.80;;;11.70;;
3369;SDS011;42042;51.948;7.628;2023-02-19T03:20:44;25.00;;;11.90;;
3369;SDS011;42042;51.948;7.628;2023-02-19T03:23:11;20.50;;;12.07;;
3369;SDS011;42042;51.948;7.628;2023-02-19T03:25:39;22.53;;;13.30;;
3369;SDS011;42042;51.948;7.628;2023-02-19T03:28:25;19.57;;;13.07;;
3369;SDS011;42042;51.948;7.628;2023-02-19T03:31:08;22.17;;;12.83;;
3369;SDS011;42042;51.948;7.628;2023-02-19T03:33:36;20.73;;;12.93;;
3369;SDS011;42042;51.948;7.628;2023-02-19T03:36:06;24.77;;;14.50;;
3369;SDS011;42042;51.948;7.628;2023-02-19T03:38:35;22.43;;;13.10;;
3369;SDS011;42042;51.948;7.628;2023-02-19T03:41:05;24.80;;;14.50;;
3369;SDS011;42042;51.948;7.628;2023-02-19T03:43:33;22.20;;;13.30;;
3369;SDS011;42042;51.948;7.628;2023-02-19T03:46:05;20.33;;;11.70;;
3369;SDS011;42042;51.948;7.628;2023-02-19T03:48:34;18.57;;;12.10;;
3369;SDS011;42042;51.948;7.628;2023-02-19T03:51:14;20.53;;;13.23;;
3369;SDS011;42042;51.948;7.628;2023-02-19T03:53:47;17.08;;;12.60;;
3369;SDS011;42042;51.948;7.628;2023-02-19T03:56:17;20.77;;;13.33;;
3369;SDS011;42042;51.948;7.628;2023-02-19T03:58:48;21.37;;;12.30;;
3369;SDS011;42042;51.948;7.628;2023-02-19T04:01:18;20.53;;;13.50;;
3369;SDS011;42042;51.948;7.628;2023-02-19T04:03:48;23.53;;;13.90;;
3369;SDS011;42042;51.948;7.628;2023-02-19T04:06:20;16.47;;;11.93;;
3369;SDS011;42042;51.948;7.628;2023-02-19T04:08:48;19.00;;;11.80;;
3369;SDS011;42042;51.948;7.628;2023-02-19T04:11:16;21.00;;;12.40;;
3369;SDS011;42042;51.948;7.628;2023-02-19T04:13:44;21.17;;;13.67;;
3369;SDS011;42042;51.948;7.628;2023-02-19T04:16:15;22.03;;;12.07;;
3369;SDS011;42042;51.948;7.628;2023-02-19T04:18:43;19.43;;;11.80;;
3369;SDS011;42042;51.948;7.628;2023-02-19T04:21:12;19.63;;;13.30;;
3369;SDS011;42042;51.948;7.628;2023-02-19T04:23:42;17.30;;;12.13;;
3369;SDS011;42042;51.948;7.628;2023-02-19T04:26:10;16.67;;;11.57;;
3369;SDS011;42042;51.948;7.628;2023-02-19T04:28:38;20.83;;;12.50;;
3369;SDS011;42042;51.948;7.628;2023-02-19T04:31:07;18.90;;;12.73;;
3369;SDS011;42042;51.948;7.628;2023-02-19T04:33:34;14.97;;;11.60;;
3369;SDS011;42042;51.948;7.628;2023-02-19T04:36:01;16.50;;;11.07;;
3369;SDS011;42042;51.948;7.628;2023-02-19T04:38:28;18.70;;;11.10;;
3369;SDS011;42042;51.948;7.628;2023-02-19T04:40:57;18.03;;;10.50;;
3369;SDS011;42042;51.948;7.628;2023-02-19T04:43:24;20.67;;;11.30;;
3369;SDS011;42042;51.948;7.628;2023-02-19T04:45:51;17.47;;;10.90;;
3369;SDS011;42042;51.948;7.628;2023-02-19T04:48:19;20.87;;;12.93;;
3369;SDS011;42042;51.948;7.628;2023-02-19T04:50:46;16.90;;;12.10;;
3369;SDS011;42042;51.948;7.628;2023-02-19T04:53:13;16.65;;;10.55;;
3369;SDS011;42042;51.948;7.628;2023-02-19T04:55:40;13.70;;;11.20;;
3369;SDS011;42042;51.948;7.628;2023-02-19T04:58:09;11.90;;;9.55;;
3369;SDS011;42042;51.948;7.628;2023-02-19T05:00:36;12.98;;;9.30;;
3369;SDS011;42042;51.948;7.628;2023-02-19T05:03:03;15.15;;;11.13;;
3369;SDS011;42042;51.948;7.628;2023-02-19T05:05:30;11.07;;;9.13;;
3369;SDS011;42042;51.948;7.628;2023-02-19T05:07:57;15.17;;;10.03;;
3369;SDS011;42042;51.948;7.628;2023-02-19T05:10:25;17.43;;;10.23;;
3369;SDS011;42042;51.948;7.628;2023-02-19T05:12:53;11.53;;;8.40;;
3369;SDS011;42042;51.948;7.628;2023-02-19T05:15:22;13.27;;;9.30;;
3369;SDS011;42042;51.948;7.628;2023-02-19T05:17:49;16.03;;;9.37;;
3369;SDS011;42042;51.948;7.628;2023-02-19T05:20:16;13.43;;;9.52;;
3369;SDS011;42042;51.948;7.628;2023-02-19T05:22:43;13.70;;;8.20;;
3369;SDS011;42042;51.948;7.628;2023-02-19T05:25:10;10.77;;;8.23;;
3369;SDS011;42042;51.948;7.628;2023-02-19T05:27:38;11.37;;;8.70;;
3369;SDS011;42042;51.948;7.628;2023-02-19T05:30:05;11.83;;;7.30;;
3369;SDS011;42042;51.948;7.628;2023-02-19T05:32:34;16.20;;;8.93;;
3369;SDS011;42042;51.948;7.628;2023-02-19T05:35:02;13.77;;;8.73;;
3369;SDS011;42042;51.948;7.628;2023-02-19T05:37:29;10.37;;;8.50;;
3369;SDS011;42042;51.948;7.628;2023-02-19T05:39:56;11.10;;;7.83;;
3369;SDS011;42042;51.948;7.628;2023-02-19T05:42:23;11.80;;;8.80;;
3369;SDS011;42042;51.948;7.628;2023-02-19T05:44:50;11.00;;;8.27;;
3369;SDS011;42042;51.948;7.628;2023-02-19T05:47:17;12.90;;;10.37;;
3369;SDS011;42042;51.948;7.628;2023-02-19T05:49:46;14.23;;;8.70;;
3369;SDS011;42042;51.948;7.628;2023-02-19T05:52:13;14.67;;;8.90;;
3369;SDS011;42042;51.948;7.628;2023-02-19T05:54:40;8.57;;;7.67;;
3369;SDS011;42042;51.948;7.628;2023-02-19T05:57:07;11.30;;;9.23;;
3369;SDS011;42042;51.948;7.628;2023-02-19T05:59:34;11.60;;;9.67;;
3369;SDS011;42042;51.948;7.628;2023-02-19T06:02:02;11.87;;;7.67;;
3369;SDS011;42042;51.948;7.628;2023-02-19T06:04:29;16.80;;;10.13;;
3369;SDS011;42042;51.948;7.628;2023-02-19T06:06:57;14.17;;;8.93;;
3369;SDS011;42042;51.948;7.628;2023-02-19T06:09:24;10.70;;;8.50;;
3369;SDS011;42042;51.948;7.628;2023-02-19T06:11:52;14.67;;;10.20;;
3369;SDS011;42042;51.948;7.628;2023-02-19T06:14:19;13.43;;;9.00;;
3369;SDS011;42042;51.948;7.628;2023-02-19T06:16:46;10.70;;;7.93;;
3369;SDS011;42042;51.948;7.628;2023-02-19T06:19:13;11.40;;;8.57;;
3369;SDS011;42042;51.948;7.628;2023-02-19T06:21:40;12.43;;;9.00;;
3369;SDS011;42042;51.948;7.628;2023-02-19T06:24:09;13.87;;;7.50;;
3369;SDS011;42042;51.948;7.628;2023-02-19T06:26:36;11.93;;;8.73;;
3369;SDS011;42042;51.948;7.628;2023-02-19T06:29:04;17.73;;;10.33;;
3369;SDS011;42042;51.948;7.628;2023-02-19T06:31:31;17.90;;;9.60;;
3369;SDS011;42042;51.948;7.628;2023-02-19T06:33:58;12.00;;;9.13;;
3369;SDS011;42042;51.948;7.628;2023-02-19T06:36:25;15.40;;;10.33;;
3369;SDS011;42042;51.948;7.628;2023-02-19T06:38:52;16.17;;;10.20;;
3369;SDS011;42042;51.948;7.628;2023-02-19T06:41:21;17.33;;;11.50;;
3369;SDS011;42042;51.948;7.628;2023-02-19T06:43:48;14.30;;;10.93;;
3369;SDS011;42042;51.948;7.628;2023-02-19T06:46:15;15.70;;;9.60;;
3369;SDS011;42042;51.948;7.628;2023-02-19T06:48:43;18.87;;;9.53;;
3369;SDS011;42042;51.948;7.628;2023-02-19T06:51:11;12.80;;;9.27;;
3369;SDS011;42042;51.948;7.628;2023-02-19T06:53:38;19.07;;;9.60;;
3369;SDS011;42042;51.948;7.628;2023-02-19T06:56:06;17.13;;;10.33;;
3369;SDS011;42042;51.948;7.628;2023-02-19T06:58:34;13.13;;;8.80;;
3369;SDS011;42042;51.948;7.628;2023-02-19T07:01:02;11.47;;;8.00;;
3369;SDS011;42042;51.948;7.628;2023-02-19T07:03:29;16.57;;;8.70;;
3369;SDS011;42042;51.948;7.628;2023-02-19T07:05:57;12.60;;;7.90;;
3369;SDS011;42042;51.948;7.628;2023-02-19T07:08:25;12.93;;;9.27;;
3369;SDS011;42042;51.948;7.628;2023-02-19T07:10:53;12.37;;;9.00;;
3369;SDS011;42042;51.948;7.628;2023-02-19T07:13:20;13.77;;;8.37;;
3369;SDS011;42042;51.948;7.628;2023-02-19T07:15:49;13.13;;;9.00;;
3369;SDS011;42042;51.948;7.628;2023-02-19T07:18:16;12.20;;;7.87;;
3369;SDS011;42042;51.948;7.628;2023-02-19T07:20:43;12.03;;;7.90;;
3369;SDS011;42042;51.948;7.628;2023-02-19T07:23:10;11.73;;;8.17;;
3369;SDS011;42042;51.948;7.628;2023-02-19T07:25:38;15.20;;;8.67;;
3369;SDS011;42042;51.948;7.628;2023-02-19T07:28:05;13.10;;;7.97;;
3369;SDS011;42042;51.948;7.628;2023-02-19T07:30:32;12.67;;;8.00;;
3369;SDS011;42042;51.948;7.628;2023-02-19T07:33:01;11.10;;;7.73;;
3369;SDS011;42042;51.948;7.628;2023-02-19T07:35:28;16.30;;;7.83;;
3369;SDS011;42042;51.948;7.628;2023-02-19T07:37:55;15.90;;;8.90;;
3369;SDS011;42042;51.948;7.628;2023-02-19T07:40:22;13.70;;;7.77;;
3369;SDS011;42042;51.948;7.628;2023-02-19T07:42:50;11.03;;;8.20;;
3369;SDS011;42042;51.948;7.628;2023-02-19T07:45:17;19.23;;;8.87;;
3369;SDS011;42042;51.948;7.628;2023-02-19T07:47:44;9.63;;;8.53;;
3369;SDS011;42042;51.948;7.628;2023-02-19T07:50:12;13.50;;;9.00;;
3369;SDS011;42042;51.948;7.628;2023-02-19T07:52:40;11.97;;;8.60;;
3369;SDS011;42042;51.948;7.628;2023-02-19T07:55:07;17.30;;;10.03;;
3369;SDS011;42042;51.948;7.628;2023-02-19T07:57:34;24.00;;;10.10;;
3369;SDS011;42042;51.948;7.628;2023-02-19T08:00:01;13.20;;;8.47;;
3369;SDS011;42042;51.948;7.628;2023-02-19T08:02:28;14.27;;;8.57;;
3369;SDS011;42042;51.948;7.628;2023-02-19T08:05:14;12.45;;;7.32;;
3369;SDS011;42042;51.948;7.628;2023-02-19T08:07:42;12.10;;;7.43;;
3369;SDS011;42042;51.948;7.628;2023-02-19T08:10:09;14.57;;;8.50;;
3369;SDS011;42042;51.948;7.628;2023-02-19T08:12:54;4.43;;;4.03;;
3369;SDS011;42042;51.948;7.628;2023-02-19T08:15:39;4.90;;;3.20;;
3369;SDS011;42042;51.948;7.628;2023-02-19T08:18:06;4.05;;;3.65;;
3369;SDS011;42042;51.948;7.628;2023-02-19T08:20:35;2.10;;;1.90;;
3369;SDS011;42042;51.948;7.628;2023-02-19T08:23:02;2.05;;;1.90;;
3369;SDS011;42042;51.948;7.628;2023-02-19T08:25:29;2.40;;;2.20;;
3369;SDS011;42042;51.948;7.628;2023-02-19T08:27:57;2.75;;;2.38;;
3369;SDS011;42042;51.948;7.628;2023-02-19T08:30:24;2.05;;;1.90;;
3369;SDS011;42042;51.948;7.628;2023-02-19T08:32:51;2.58;;;1.98;;
3369;SDS011;42042;51.948;7.628;2023-02-19T08:35:19;2.40;;;2.20;;
3369;SDS011;42042;51.948;7.628;2023-02-19T08:37:47;2.60;;;2.28;;
3369;SDS011;42042;51.948;7.628;2023-02-19T08:40:15;2.38;;;2.17;;
3369;SDS011;42042;51.948;7.628;2023-02-19T08:42:42;2.90;;;2.70;;
3369;SDS011;42042;51.948;7.628;2023-02-19T08:45:09;2.72;;;2.20;;
3369;SDS011;42042;51.948;7.628;2023-02-19T08:47:36;2.85;;;2.55;;
3369;SDS011;42042;51.948;7.628;2023-02-19T08:50:04;3.00;;;2.70;;
3369;SDS011;42042;51.948;7.628;2023-02-19T08:52:31;2.53;;;2.33;;
3369;SDS011;42042;51.948;7.628;2023-02-19T08:55:00;3.25;;;2.95;;
3369;SDS011;42042;51.948;7.628;2023-02-19T08:57:28;2.80;;;2.60;;
3369;SDS011;42042;51.948;7.628;2023-02-19T08:59:55;3.33;;;2.90;;
3369;SDS011;42042;51.948;7.628;2023-02-19T09:02:23;3.78;;;3.25;;
3369;SDS011;42042;51.948;7.628;2023-02-19T09:04:50;3.30;;;3.00;;
3369;SDS011;42042;51.948;7.628;2023-02-19T09:07:17;3.60;;;3.30;;
3369;SDS011;42042;51.948;7.628;2023-02-19T09:09:45;5.15;;;4.28;;
3369;SDS011;42042;51.948;7.628;2023-02-19T09:12:15;9.50;;;4.25;;
3369;SDS011;42042;51.948;7.628;2023-02-19T09:14:42;3.83;;;3.33;;
3369;SDS011;42042;51.948;7.628;2023-02-19T09:17:09;11.77;;;8.38;;
3369;SDS011;42042;51.948;7.628;2023-02-19T09:19:36;8.02;;;5.95;;
3369;SDS011;42042;51.948;7.628;2023-02-19T09:22:03;2.80;;;2.50;;
3369;SDS011;42042;51.948;7.628;2023-02-19T09:24:31;3.58;;;3.28;;
3369;SDS011;42042;51.948;7.628;2023-02-19T09:26:58;3.47;;;2.70;;
3369;SDS011;42042;51.948;7.628;2023-02-19T09:29:27;1.98;;;1.88;;
3369;SDS011;42042;51.948;7.628;2023-02-19T09:31:54;2.10;;;1.80;;
3369;SDS011;42042;51.948;7.628;2023-02-19T09:34:23;3.15;;;2.13;;
3369;SDS011;42042;51.948;7.628;2023-02-19T09:36:50;4.13;;;2.25;;
3369;SDS011;42042;51.948;7.628;2023-02-19T09:39:17;3.25;;;2.65;;
3369;SDS011;42042;51.948;7.628;2023-02-19T09:41:45;3.00;;;2.42;;
3369;SDS011;42042;51.948;7.628;2023-02-19T09:44:13;2.40;;;2.20;;
3369;SDS011;42042;51.948;7.628;2023-02-19T09:46:45;2.58;;;2.38;;
3369;SDS011;42042;51.948;7.628;2023-02-19T09:49:14;2.40;;;2.20;;
3369;SDS011;42042;51.948;7.628;2023-02-19T09:51:42;5.35;;;3.00;;
3369;SDS011;42042;51.948;7.628;2023-02-19T09:54:13;2.90;;;2.40;;
3369;SDS011;42042;51.948;7.628;2023-02-19T09:56:40;4.80;;;2.70;;
3369;SDS011;42042;51.948;7.628;2023-02-19T09:59:08;2.88;;;2.50;;
3369;SDS011;42042;51.948;7.628;2023-02-19T10:01:41;2.78;;;2.42;;
3369;SDS011;42042;51.948;7.628;2023-02-19T10:04:11;4.60;;;3.30;;
3369;SDS011;42042;51.948;7.628;2023-02-19T10:06:38;4.15;;;2.60;;
3369;SDS011;42042;51.948;7.628;2023-02-19T10:09:11;4.20;;;3.40;;
3369;SDS011;42042;51.948;7.628;2023-02-19T10:11:39;3.13;;;2.67;;
3369;SDS011;42042;51.948;7.628;2023-02-19T10:14:11;2.92;;;2.20;;
3369;SDS011;42042;51.948;7.628;2023-02-19T10:16:39;4.32;;;3.30;;
3369;SDS011;42042;51.948;7.628;2023-02-19T10:19:14;3.75;;;2.95;;
3369;SDS011;42042;51.948;7.628;2023-02-19T10:21:41;2.95;;;2.70;;
3369;SDS011;42042;51.948;7.628;2023-02-19T10:24:09;3.58;;;3.25;;
3369;SDS011;42042;51.948;7.628;2023-02-19T10:26:40;5.03;;;3.40;;
3369;SDS011;42042;51.948;7.628;2023-02-19T10:29:08;3.70;;;3.17;;
3369;SDS011;42042;51.948;7.628;2023-02-19T10:31:35;4.88;;;4.47;;
3369;SDS011;42042;51.948;7.628;2023-02-19T10:34:02;3.90;;;3.50;;
3369;SDS011;42042;51.948;7.628;2023-02-19T10:36:34;4.20;;;3.78;;
3369;SDS011;42042;51.948;7.628;2023-02-19T10:39:04;6.28;;;4.47;;
3369;SDS011;42042;51.948;7.628;2023-02-19T10:41:33;9.50;;;6.05;;
3369;SDS011;42042;51.948;7.628;2023-02-19T10:44:02;4.90;;;3.65;;
3369;SDS011;42042;51.948;7.628;2023-02-19T10:46:31;5.63;;;4.60;;
3369;SDS011;42042;51.948;7.628;2023-02-19T10:48:59;4.60;;;4.20;;
3369;SDS011;42042;51.948;7.628;2023-02-19T10:51:30;6.68;;;4.53;;
3369;SDS011;42042;51.948;7.628;2023-02-19T10:54:04;4.40;;;3.80;;
3369;SDS011;42042;51.948;7.628;2023-02-19T10:56:31;4.47;;;4.07;;
3369;SDS011;42042;51.948;7.628;2023-02-19T10:59:13;4.68;;;3.58;;
3369;SDS011;42042;51.948;7.628;2023-02-19T11:01:51;5.88;;;4.28;;
3369;SDS011;42042;51.948;7.628;2023-02-19T11:04:19;3.80;;;3.50;;
3369;SDS011;42042;51.948;7.628;2023-02-19T11:06:46;5.05;;;4.35;;
3369;SDS011;42042;51.948;7.628;2023-02-19T11:09:21;4.18;;;3.60;;
3369;SDS011;42042;51.948;7.628;2023-02-19T11:11:49;6.13;;;4.22;;
3369;SDS011;42042;51.948;7.628;2023-02-19T11:14:18;5.80;;;3.92;;
3369;SDS011;42042;51.948;7.628;2023-02-19T11:16:48;11.57;;;7.18;;
3369;SDS011;42042;51.948;7.628;2023-02-19T11:19:23;6.13;;;3.87;;
3369;SDS011;42042;51.948;7.628;2023-02-19T11:21:51;5.00;;;3.78;;
3369;SDS011;42042;51.948;7.628;2023-02-19T11:24:22;4.30;;;3.90;;
3369;SDS011;42042;51.948;7.628;2023-02-19T11:26:51;4.10;;;3.55;;
3369;SDS011;42042;51.948;7.628;2023-02-19T11:29:19;3.80;;;3.43;;
3369;SDS011;42042;51.948;7.628;2023-02-19T11:31:48;4.20;;;3.83;;
3369;SDS011;42042;51.948;7.628;2023-02-19T11:34:28;5.00;;;3.20;;
3369;SDS011;42042;51.948;7.628;2023-02-19T11:37:08;3.60;;;2.90;;
3369;SDS011;42042;51.948;7.628;2023-02-19T11:39:38;3.20;;;2.90;;
3369;SDS011;42042;51.948;7.628;2023-02-19T11:42:09;3.30;;;3.00;;
3369;SDS011;42042;51.948;7.628;2023-02-19T11:44:49;3.00;;;2.80;;
3369;SDS011;42042;51.948;7.628;2023-02-19T11:47:30;4.40;;;3.53;;
3369;SDS011;42042;51.948;7.628;2023-02-19T11:50:00;2.60;;;2.40;;
3369;SDS011;42042;51.948;7.628;2023-02-19T11:52:30;3.10;;;2.80;;
3369;SDS011;42042;51.948;7.628;2023-02-19T11:55:02;3.70;;;3.30;;
3369;SDS011;42042;51.948;7.628;2023-02-19T11:57:37;3.60;;;2.83;;
3369;SDS011;42042;51.948;7.628;2023-02-19T12:03:09;3.27;;;2.97;;
3369;SDS011;42042;51.948;7.628;2023-02-19T12:05:44;2.97;;;2.70;;
3369;SDS011;42042;51.948;7.628;2023-02-19T12:13:53;3.00;;;2.80;;
3369;SDS011;42042;51.948;7.628;2023-02-19T12:16:21;5.67;;;3.10;;
3369;SDS011;42042;51.948;7.628;2023-02-19T12:19:02;4.10;;;3.70;;
3369;SDS011;42042;51.948;7.628;2023-02-19T12:21:37;3.00;;;2.70;;
3369;SDS011;42042;51.948;7.628;2023-02-19T12:24:10;3.40;;;3.10;;
3369;SDS011;42042;51.948;7.628;2023-02-19T12:26:42;3.55;;;3.25;;
3369;SDS011;42042;51.948;7.628;2023-02-19T12:29:18;3.27;;;3.03;;
3369;SDS011;42042;51.948;7.628;2023-02-19T12:32:02;2.80;;;2.60;;
3369;SDS011;42042;51.948;7.628;2023-02-19T12:37:22;3.10;;;2.90;;
3369;SDS011;42042;51.948;7.628;2023-02-19T12:39:54;3.50;;;3.20;;
3369;SDS011;42042;51.948;7.628;2023-02-19T12:42:30;3.33;;;3.03;;
3369;SDS011;42042;51.948;7.628;2023-02-19T12:45:05;3.37;;;3.07;;
3369;SDS011;42042;51.948;7.628;2023-02-19T12:47:35;3.63;;;3.30;;
3369;SDS011;42042;51.948;7.628;2023-02-19T12:50:04;4.47;;;3.43;;
3369;SDS011;42042;51.948;7.628;2023-02-19T12:52:35;3.57;;;3.27;;
3369;SDS011;42042;51.948;7.628;2023-02-19T12:55:07;3.83;;;3.50;;
3369;SDS011;42042;51.948;7.628;2023-02-19T12:57:39;4.10;;;3.30;;
3369;SDS011;42042;51.948;7.628;2023-02-19T13:00:11;3.28;;;2.97;;
3369;SDS011;42042;51.948;7.628;2023-02-19T13:02:44;3.40;;;3.10;;
3369;SDS011;42042;51.948;7.628;2023-02-19T13:05:14;4.17;;;3.77;;
3369;SDS011;42042;51.948;7.628;2023-02-19T13:07:46;3.63;;;3.17;;
3369;SDS011;42042;51.948;7.628;2023-02-19T13:10:25;4.00;;;3.60;;
3369;SDS011;42042;51.948;7.628;2023-02-19T13:12:53;3.97;;;3.67;;
3369;SDS011;42042;51.948;7.628;2023-02-19T13:15:28;4.20;;;3.80;;
3369;SDS011;42042;51.948;7.628;2023-02-19T13:17:57;3.60;;;3.30;;
3369;SDS011;42042;51.948;7.628;2023-02-19T13:20:26;4.73;;;3.63;;
3369;SDS011;42042;51.948;7.628;2023-02-19T13:22:57;4.10;;;3.80;;
3369;SDS011;42042;51.948;7.628;2023-02-19T13:25:47;4.30;;;3.90;;
3369;SDS011;42042;51.948;7.628;2023-02-19T13:28:19;3.37;;;3.10;;
3369;SDS011;42042;51.948;7.628;2023-02-19T13:30:59;3.80;;;3.17;;
3369;SDS011;42042;51.948;7.628;2023-02-19T13:33:33;3.57;;;3.27;;
3369;SDS011;42042;51.948;7.628;2023-02-19T13:36:11;3.60;;;3.30;;
3369;SDS011;42042;51.948;7.628;2023-02-19T13:38:39;3.20;;;2.90;;
3369;SDS011;42042;51.948;7.628;2023-02-19T13:41:15;3.90;;;3.60;;
3369;SDS011;42042;51.948;7.628;2023-02-19T13:43:43;3.55;;;3.25;;
3369;SDS011;42042;51.948;7.628;2023-02-19T13:46:12;4.17;;;3.67;;
3369;SDS011;42042;51.948;7.628;2023-02-19T13:48:41;3.97;;;3.57;;
3369;SDS011;42042;51.948;7.628;2023-02-19T13:53:58;4.17;;;3.57;;
3369;SDS011;42042;51.948;7.628;2023-02-19T13:56:35;5.33;;;3.80;;
3369;SDS011;42042;51.948;7.628;2023-02-19T14:04:43;5.23;;;4.67;;
3369;SDS011;42042;51.948;7.628;2023-02-19T14:07:19;4.43;;;3.78;;
3369;SDS011;42042;51.948;7.628;2023-02-19T14:09:46;4.00;;;3.63;;
3369;SDS011;42042;51.948;7.628;2023-02-19T14:12:17;3.88;;;3.58;;
3369;SDS011;42042;51.948;7.628;2023-02-19T14:14:45;4.13;;;3.73;;
3369;SDS011;42042;51.948;7.628;2023-02-19T14:17:24;3.80;;;3.07;;
3369;SDS011;42042;51.948;7.628;2023-02-19T14:19:53;3.78;;;3.40;;
3369;SDS011;42042;51.948;7.628;2023-02-19T14:25:08;4.28;;;3.78;;
3369;SDS011;42042;51.948;7.628;2023-02-19T14:27:43;4.65;;;3.78;;
3369;SDS011;42042;51.948;7.628;2023-02-19T14:30:11;4.80;;;3.67;;
3369;SDS011;42042;51.948;7.628;2023-02-19T14:32:39;3.83;;;3.53;;
3369;SDS011;42042;51.948;7.628;2023-02-19T14:35:15;3.70;;;3.35;;
3369;SDS011;42042;51.948;7.628;2023-02-19T14:37:43;3.95;;;3.60;;
3369;SDS011;42042;51.948;7.628;2023-02-19T14:40:11;3.50;;;3.20;;
3369;SDS011;42042;51.948;7.628;2023-02-19T14:42:43;4.30;;;3.77;;
3369;SDS011;42042;51.948;7.628;2023-02-19T14:45:11;4.00;;;3.70;;
3369;SDS011;42042;51.948;7.628;2023-02-19T14:47:39;4.53;;;3.40;;
3369;SDS011;42042;51.948;7.628;2023-02-19T14:50:08;6.45;;;4.15;;
3369;SDS011;42042;51.948;7.628;2023-02-19T14:52:41;4.70;;;3.60;;
3369;SDS011;42042;51.948;7.628;2023-02-19T14:55:13;5.63;;;3.85;;
3369;SDS011;42042;51.948;7.628;2023-02-19T14:57:44;3.97;;;3.60;;
3369;SDS011;42042;51.948;7.628;2023-02-19T15:00:20;5.20;;;3.93;;
3369;SDS011;42042;51.948;7.628;2023-02-19T15:02:48;5.00;;;4.30;;
3369;SDS011;42042;51.948;7.628;2023-02-19T15:05:16;5.00;;;4.32;;
3369;SDS011;42042;51.948;7.628;2023-02-19T15:07:44;5.07;;;4.57;;
3369;SDS011;42042;51.948;7.628;2023-02-19T15:10:12;4.40;;;4.00;;
3369;SDS011;42042;51.948;7.628;2023-02-19T15:12:41;4.50;;;4.10;;
3369;SDS011;42042;51.948;7.628;2023-02-19T15:15:14;5.47;;;4.18;;
3369;SDS011;42042;51.948;7.628;2023-02-19T15:17:42;4.63;;;4.18;;
3369;SDS011;42042;51.948;7.628;2023-02-19T15:20:10;4.00;;;3.70;;
3369;SDS011;42042;51.948;7.628;2023-02-19T15:22:38;6.43;;;4.00;;
3369;SDS011;42042;51.948;7.628;2023-02-19T15:25:10;4.25;;;3.60;;
3369;SDS011;42042;51.948;7.628;2023-02-19T15:27:38;3.85;;;3.53;;
3369;SDS011;42042;51.948;7.628;2023-02-19T15:30:14;5.83;;;4.27;;
3369;SDS011;42042;51.948;7.628;2023-02-19T15:32:50;4.67;;;4.27;;